Terminal Aerodrome Forecast
Issued by NWS

Home | Current Version | Previous Version | Text Only | Print | Product List | Glossary On
Versions: 1 2 3 4 5 6 7 8 9 10 11 12 13 14 15 16 17 18 19 20 21 22 23
000
FTUS43 KFGF 010617 CCA
TAFBJI
TAF COR
KBJI 010617Z 0106/0206 11006KT P6SM SCT250
      TEMPO 0107/0109 BKN005
     FM010900 VRB04KT P6SM BKN005
     FM011400 14004KT P6SM BKN250
     FM011600 13005KT P6SM BKN250
     FM020400 VRB03KT P6SM BKN040=

USA.gov is the U.S. government's official web portal to all federal, state and local government web resources and services.